Time;durP1;ratioP1;P1;durP2;ratioP2;P2;SDS_P1;SDS_P2;PMS_P1;PMS_P2;Temp;Humidity;BMP_temperature;BMP_pressure;BME280_temperature;BME280_humidity;BME280_pressure;Samples;Min_cycle;Max_cycle;Signal;HPM_P1;HPM_P2
2022/08/20 00:00:38;;;;;;;1.70;0.47;;;17.50;99.90;;;;;;5012247;28;20089;-74
2022/08/20 00:03:20;;;;;;;0.00;0.00;;;17.40;99.90;;;;;;5012956;28;20046;-75
2022/08/20 00:05:51;;;;;;;0.40;0.32;;;17.40;99.90;;;;;;5011720;28;20100;-74
2022/08/20 00:08:20;;;;;;;0.17;0.10;;;17.40;99.90;;;;;;5012252;28;20046;-75
2022/08/20 00:10:48;;;;;;;0.10;0.10;;;17.40;99.90;;;;;;5012160;28;20049;-75
2022/08/20 00:13:23;;;;;;;0.70;0.70;;;17.30;99.90;;;;;;5013002;28;20042;-74
2022/08/20 00:15:49;;;;;;;0.30;0.27;;;17.40;99.90;;;;;;5012253;28;20099;-74
2022/08/20 00:18:15;;;;;;;0.00;0.00;;;17.20;99.90;;;;;;5011027;28;20046;-75
2022/08/20 00:20:44;;;;;;;0.90;0.73;;;17.20;99.90;;;;;;5011788;28;20114;-74
2022/08/20 00:23:11;;;;;;;0.10;0.10;;;17.10;99.90;;;;;;5013717;28;20106;-75
2022/08/20 00:25:37;;;;;;;1.75;1.15;;;17.10;99.90;;;;;;5013616;28;20125;-74
2022/08/20 00:28:05;;;;;;;0.15;0.15;;;17.10;99.90;;;;;;5013898;28;20105;-74
2022/08/20 00:30:33;;;;;;;1.25;0.50;;;17.00;99.90;;;;;;5011539;28;20054;-74
2022/08/20 00:33:04;;;;;;;1.00;0.57;;;16.90;99.90;;;;;;5011663;28;20042;-74
2022/08/20 00:35:33;;;;;;;0.68;0.68;;;16.90;99.90;;;;;;5012673;28;20046;-74
2022/08/20 00:37:59;;;;;;;0.17;0.10;;;16.80;99.90;;;;;;5012395;28;20042;-74
2022/08/20 00:40:29;;;;;;;0.60;0.47;;;16.60;99.90;;;;;;5012568;28;20129;-74
2022/08/20 00:43:01;;;;;;;0.05;0.05;;;16.60;99.90;;;;;;5013216;28;20031;-74
2022/08/20 00:45:29;;;;;;;0.15;0.15;;;16.60;99.90;;;;;;5011855;28;20050;-74
2022/08/20 00:47:54;;;;;;;1.17;0.45;;;16.60;99.90;;;;;;5012346;28;20093;-74
2022/08/20 00:50:28;;;;;;;0.80;0.60;;;16.70;99.90;;;;;;5012290;28;20034;-75
2022/08/20 00:52:54;;;;;;;2.08;0.55;;;16.90;99.90;;;;;;5010453;28;20085;-74
2022/08/20 00:55:23;;;;;;;1.08;0.77;;;16.90;99.90;;;;;;5011128;28;20046;-75
2022/08/20 00:57:52;;;;;;;0.20;0.15;;;16.90;99.90;;;;;;5010319;28;20068;-74
2022/08/20 01:00:40;;;;;;;0.82;0.68;;;16.80;99.90;;;;;;5010649;28;20108;-75
2022/08/20 01:03:08;;;;;;;0.25;0.22;;;16.80;99.90;;;;;;5009280;28;20035;-74
2022/08/20 01:05:35;;;;;;;0.60;0.60;;;16.80;99.90;;;;;;5008510;28;20062;-74
2022/08/20 01:08:01;;;;;;;0.10;0.10;;;16.80;99.90;;;;;;5013465;28;20050;-74
2022/08/20 01:10:31;;;;;;;0.28;0.28;;;16.80;99.90;;;;;;5030517;28;20038;-75
2022/08/20 01:12:59;;;;;;;0.47;0.47;;;16.80;99.90;;;;;;5029196;28;20106;-74
2022/08/20 01:15:28;;;;;;;0.30;0.22;;;16.70;99.90;;;;;;5030274;28;20088;-74
2022/08/20 01:17:57;;;;;;;0.60;0.43;;;16.70;99.90;;;;;;5031548;28;20046;-74
2022/08/20 01:20:30;;;;;;;0.40;0.30;;;16.60;99.90;;;;;;5030429;28;20064;-74
2022/08/20 01:23:26;;;;;;;0.20;0.20;;;16.60;99.90;;;;;;5032673;28;20042;-74
2022/08/20 01:26:01;;;;;;;4.40;1.80;;;16.60;99.90;;;;;;5030689;28;20054;-74
2022/08/20 01:28:30;;;;;;;0.70;0.70;;;16.60;99.90;;;;;;5025294;28;20049;-75
2022/08/20 01:30:56;;;;;;;0.80;0.73;;;16.70;99.90;;;;;;5010657;28;20070;-74
2022/08/20 01:33:23;;;;;;;0.22;0.22;;;16.70;99.90;;;;;;5012035;28;20057;-75
2022/08/20 01:35:50;;;;;;;2.08;0.73;;;16.70;99.90;;;;;;5011143;28;20096;-74
2022/08/20 01:38:16;;;;;;;0.00;0.00;;;16.70;99.90;;;;;;5010924;28;20038;-74
2022/08/20 01:41:20;;;;;;;0.13;0.13;;;16.50;99.90;;;;;;5010385;28;20064;-74
2022/08/20 01:43:48;;;;;;;1.45;0.65;;;16.70;99.90;;;;;;5011694;28;20050;-74
2022/08/20 01:46:15;;;;;;;0.00;0.00;;;16.40;99.90;;;;;;5010308;28;20038;-74
2022/08/20 01:48:42;;;;;;;0.43;0.35;;;16.30;99.90;;;;;;5009680;28;20069;-74
2022/08/20 01:51:15;;;;;;;1.17;0.40;;;16.20;99.90;;;;;;5011148;28;20061;-74
2022/08/20 01:53:46;;;;;;;0.70;0.45;;;16.20;99.90;;;;;;5012541;28;20112;-74
2022/08/20 01:56:15;;;;;;;1.05;0.82;;;16.20;99.90;;;;;;5010815;28;20042;-74
2022/08/20 01:58:48;;;;;;;0.98;0.45;;;16.20;99.90;;;;;;5009894;28;20105;-74
2022/08/20 02:01:21;;;;;;;0.08;0.08;;;16.10;99.90;;;;;;5010526;28;20101;-74
2022/08/20 02:03:47;;;;;;;0.15;0.15;;;16.10;99.90;;;;;;5012283;28;20046;-74
2022/08/20 02:06:13;;;;;;;0.75;0.50;;;16.00;99.90;;;;;;5012739;28;20105;-74
2022/08/20 02:08:38;;;;;;;0.32;0.32;;;16.00;99.90;;;;;;5011653;28;20078;-75
2022/08/20 02:11:04;;;;;;;0.10;0.10;;;16.00;99.90;;;;;;5012564;28;20046;-75
2022/08/20 02:13:31;;;;;;;0.45;0.20;;;16.00;99.90;;;;;;5011977;28;20058;-75
2022/08/20 02:15:57;;;;;;;0.25;0.25;;;16.00;99.90;;;;;;5010382;28;20046;-74
2022/08/20 02:18:22;;;;;;;0.63;0.52;;;15.90;99.90;;;;;;5011933;28;20077;-75
2022/08/20 02:20:50;;;;;;;1.85;1.55;;;15.90;99.90;;;;;;5012582;28;20042;-74
2022/08/20 02:23:20;;;;;;;0.32;0.32;;;15.90;99.90;;;;;;5012499;28;20038;-75
2022/08/20 02:25:46;;;;;;;0.28;0.22;;;16.70;99.90;;;;;;5014490;28;20047;-76
2022/08/20 02:28:15;;;;;;;0.00;0.00;;;15.70;99.90;;;;;;5014869;28;20042;-76
2022/08/20 02:30:46;;;;;;;0.20;0.10;;;15.70;99.90;;;;;;5014199;28;20042;-74
2022/08/20 02:33:14;;;;;;;0.20;0.20;;;15.60;99.90;;;;;;5014918;28;20057;-76
2022/08/20 02:35:41;;;;;;;0.10;0.10;;;15.60;99.90;;;;;;5015172;28;20077;-76
2022/08/20 02:38:08;;;;;;;0.20;0.20;;;15.90;99.90;;;;;;5014382;28;20452;-75
2022/08/20 02:40:34;;;;;;;1.40;0.98;;;15.90;99.90;;;;;;5015147;28;20038;-74
2022/08/20 02:43:01;;;;;;;0.35;0.20;;;15.70;99.90;;;;;;5015598;28;20045;-75
2022/08/20 02:45:28;;;;;;;0.65;0.55;;;15.70;99.90;;;;;;5014640;28;20069;-75
2022/08/20 02:47:55;;;;;;;1.27;0.38;;;15.70;99.90;;;;;;5015903;28;20101;-74
2022/08/20 02:50:24;;;;;;;0.30;0.20;;;15.60;99.90;;;;;;5014794;28;20053;-75
2022/08/20 02:52:50;;;;;;;0.17;0.13;;;15.60;99.90;;;;;;5014730;28;20046;-75
2022/08/20 02:55:16;;;;;;;0.55;0.10;;;15.60;99.90;;;;;;5015480;28;20066;-75
2022/08/20 02:57:42;;;;;;;0.28;0.25;;;15.50;99.90;;;;;;5017123;28;20074;-75
2022/08/20 03:00:13;;;;;;;0.00;0.00;;;15.40;99.90;;;;;;5017521;28;20098;-76
2022/08/20 03:02:39;;;;;;;0.00;0.00;;;15.40;99.90;;;;;;5015835;28;20047;-75
2022/08/20 03:05:06;;;;;;;0.10;0.10;;;15.40;99.90;;;;;;5016255;28;20049;-75
2022/08/20 03:07:32;;;;;;;0.13;0.13;;;15.30;99.90;;;;;;5016820;28;20042;-75
2022/08/20 03:09:57;;;;;;;0.00;0.00;;;15.30;99.90;;;;;;5016480;28;20047;-75
2022/08/20 03:12:23;;;;;;;0.28;0.25;;;15.10;99.90;;;;;;5016655;28;20048;-74
2022/08/20 03:14:49;;;;;;;0.98;0.40;;;15.10;99.90;;;;;;5016733;28;20053;-75
2022/08/20 03:17:15;;;;;;;0.10;0.10;;;15.10;99.90;;;;;;5016414;28;20038;-75
2022/08/20 03:19:41;;;;;;;0.40;0.30;;;15.10;99.90;;;;;;5015687;28;20129;-75
2022/08/20 03:22:06;;;;;;;0.82;0.77;;;15.10;99.90;;;;;;5015438;28;20106;-77
2022/08/20 03:24:32;;;;;;;0.52;0.40;;;15.20;99.90;;;;;;5015509;28;20052;-75
2022/08/20 03:26:57;;;;;;;0.35;0.35;;;15.20;99.90;;;;;;5016130;28;20394;-76
2022/08/20 03:29:23;;;;;;;0.20;0.20;;;15.30;99.90;;;;;;5015303;28;20374;-75
2022/08/20 03:31:48;;;;;;;0.15;0.15;;;15.30;99.90;;;;;;5015965;28;20034;-75
2022/08/20 03:34:14;;;;;;;0.10;0.10;;;15.30;99.90;;;;;;5016235;28;20106;-76
2022/08/20 03:36:39;;;;;;;0.32;0.30;;;15.30;99.90;;;;;;5014559;28;20053;-76
2022/08/20 03:39:10;;;;;;;0.50;0.50;;;15.30;99.90;;;;;;5015147;28;20074;-75
2022/08/20 03:41:36;;;;;;;0.73;0.70;;;15.30;99.90;;;;;;5015790;28;20065;-76
2022/08/20 03:44:01;;;;;;;0.00;0.00;;;15.30;99.90;;;;;;5016177;28;20046;-75
2022/08/20 03:46:27;;;;;;;0.00;0.00;;;15.30;99.90;;;;;;5016432;28;20038;-75
2022/08/20 03:48:54;;;;;;;0.15;0.15;;;15.20;99.90;;;;;;5016220;28;20042;-75
2022/08/20 03:51:19;;;;;;;1.23;0.35;;;15.30;99.90;;;;;;5016109;28;20097;-75
2022/08/20 03:53:45;;;;;;;1.02;0.30;;;15.60;99.90;;;;;;5016724;28;20046;-75
2022/08/20 03:56:11;;;;;;;0.13;0.10;;;15.30;99.90;;;;;;5016971;28;20050;-75
2022/08/20 03:58:36;;;;;;;0.20;0.20;;;15.30;99.90;;;;;;5016931;28;20063;-75
2022/08/20 04:01:05;;;;;;;0.03;0.03;;;15.30;99.90;;;;;;5017338;28;20038;-76
2022/08/20 04:03:31;;;;;;;0.20;0.20;;;15.40;99.90;;;;;;5015525;28;20042;-75
2022/08/20 04:05:57;;;;;;;0.57;0.40;;;15.40;99.90;;;;;;5015887;28;20039;-75
2022/08/20 04:08:26;;;;;;;0.10;0.10;;;15.40;99.90;;;;;;5015936;28;20090;-77
2022/08/20 04:10:52;;;;;;;1.40;0.35;;;15.40;99.90;;;;;;5015700;28;20046;-75
2022/08/20 04:13:20;;;;;;;0.30;0.30;;;15.40;99.90;;;;;;5016067;28;20046;-75
2022/08/20 04:15:46;;;;;;;0.15;0.15;;;15.40;99.90;;;;;;5015979;28;20038;-76
2022/08/20 04:18:13;;;;;;;0.17;0.13;;;15.40;99.90;;;;;;5015927;28;20057;-75
2022/08/20 04:20:40;;;;;;;0.15;0.13;;;15.40;99.90;;;;;;5016358;28;20058;-75
2022/08/20 04:23:07;;;;;;;0.25;0.25;;;15.40;99.90;;;;;;5016198;28;20034;-75
2022/08/20 04:25:34;;;;;;;0.00;0.00;;;15.30;99.90;;;;;;5016614;28;20049;-76
2022/08/20 04:28:04;;;;;;;2.97;0.45;;;15.40;99.90;;;;;;5016901;28;20054;-75
2022/08/20 04:30:31;;;;;;;0.00;0.00;;;15.40;99.90;;;;;;5016912;28;20057;-74
2022/08/20 04:32:58;;;;;;;0.20;0.20;;;15.50;99.90;;;;;;5016784;28;20050;-76
2022/08/20 04:35:24;;;;;;;0.73;0.57;;;15.40;99.90;;;;;;5016591;28;20026;-75
2022/08/20 04:38:01;;;;;;;0.40;0.20;;;15.30;99.90;;;;;;5016177;28;20038;-75
2022/08/20 04:43:12;;;;;;;0.15;0.13;;;15.30;99.90;;;;;;5014731;28;20030;-75
2022/08/20 04:45:37;;;;;;;0.30;0.22;;;15.30;99.90;;;;;;5015145;28;20019;-75
2022/08/20 04:48:04;;;;;;;1.08;0.47;;;15.20;99.90;;;;;;5015817;28;20026;-76
2022/08/20 04:50:34;;;;;;;0.10;0.10;;;15.20;99.90;;;;;;5016977;28;20042;-76
2022/08/20 04:53:03;;;;;;;0.00;0.00;;;15.20;99.90;;;;;;5017351;28;20065;-76
2022/08/20 04:55:33;;;;;;;0.15;0.15;;;15.20;99.90;;;;;;5018085;28;20033;-77
2022/08/20 04:58:04;;;;;;;0.52;0.20;;;15.20;99.90;;;;;;5018020;28;20061;-76
2022/08/20 05:00:30;;;;;;;0.15;0.15;;;15.30;99.90;;;;;;5017892;28;20046;-77
2022/08/20 05:02:56;;;;;;;1.75;0.50;;;15.30;99.90;;;;;;5017199;28;20537;-76
2022/08/20 05:05:30;;;;;;;0.85;0.03;;;15.30;99.90;;;;;;5018142;28;20022;-76
2022/08/20 05:08:11;;;;;;;0.38;0.30;;;15.30;99.90;;;;;;5018098;28;20052;-76
2022/08/20 05:10:38;;;;;;;0.00;0.00;;;15.30;99.90;;;;;;5017950;28;20046;-76
2022/08/20 05:13:05;;;;;;;0.30;0.30;;;15.40;99.90;;;;;;5017534;28;20086;-76
2022/08/20 05:15:31;;;;;;;1.30;0.22;;;15.40;99.90;;;;;;5017204;28;20047;-76
2022/08/20 05:18:03;;;;;;;0.00;0.00;;;15.40;99.90;;;;;;5017819;28;20102;-75
2022/08/20 05:20:32;;;;;;;0.35;0.28;;;15.40;99.90;;;;;;5017351;28;20018;-76
2022/08/20 05:23:00;;;;;;;0.13;0.13;;;15.40;99.90;;;;;;5016966;28;20043;-76
2022/08/20 05:25:29;;;;;;;0.22;0.22;;;15.40;99.90;;;;;;5016686;28;20042;-76
2022/08/20 05:28:00;;;;;;;0.00;0.00;;;15.30;99.90;;;;;;5016353;28;20019;-75
2022/08/20 05:30:32;;;;;;;0.50;0.35;;;15.30;99.90;;;;;;5016784;28;20026;-76
2022/08/20 05:33:06;;;;;;;1.60;0.40;;;15.30;99.90;;;;;;5015474;28;20102;-75
2022/08/20 05:35:34;;;;;;;0.28;0.10;;;15.20;99.90;;;;;;5016940;28;20045;-76
2022/08/20 05:38:00;;;;;;;0.00;0.00;;;15.20;99.90;;;;;;5016368;28;20045;-76
2022/08/20 05:40:26;;;;;;;0.00;0.00;;;15.10;99.90;;;;;;5016975;28;20050;-75
2022/08/20 05:42:53;;;;;;;0.63;0.47;;;15.00;99.90;;;;;;5016226;28;20149;-77
2022/08/20 05:45:20;;;;;;;0.15;0.15;;;15.00;99.90;;;;;;5015281;28;20047;-75
2022/08/20 05:47:47;;;;;;;2.28;0.52;;;15.00;99.90;;;;;;5016690;28;20046;-76
2022/08/20 05:50:14;;;;;;;0.08;0.08;;;15.50;99.90;;;;;;5016633;28;20098;-75
2022/08/20 05:52:41;;;;;;;0.20;0.10;;;15.00;99.90;;;;;;5018932;28;20042;-76
2022/08/20 05:55:09;;;;;;;0.63;0.40;;;15.00;99.90;;;;;;5020908;28;20046;-75
2022/08/20 05:57:35;;;;;;;0.20;0.20;;;14.90;99.90;;;;;;5020036;28;20037;-75
2022/08/20 06:00:03;;;;;;;0.15;0.15;;;15.00;99.90;;;;;;5020066;28;20029;-76
2022/08/20 06:05:14;;;;;;;0.00;0.00;;;15.10;99.90;;;;;;5019256;28;20084;-75
2022/08/20 06:07:40;;;;;;;0.52;0.32;;;15.30;99.90;;;;;;5019136;28;20042;-75
2022/08/20 06:10:08;;;;;;;0.35;0.35;;;15.30;99.90;;;;;;5018047;28;20044;-76
2022/08/20 06:12:33;;;;;;;0.00;0.00;;;15.30;99.90;;;;;;5016694;28;20054;-75
2022/08/20 06:14:59;;;;;;;0.45;0.22;;;15.40;99.90;;;;;;5018237;28;20053;-75
2022/08/20 06:17:26;;;;;;;0.95;0.70;;;15.40;99.90;;;;;;5018906;28;20066;-75
2022/08/20 06:19:51;;;;;;;0.55;0.55;;;15.40;99.90;;;;;;5018749;28;20043;-75
2022/08/20 06:22:17;;;;;;;0.15;0.15;;;15.40;99.90;;;;;;5018379;28;20052;-75
2022/08/20 06:24:43;;;;;;;1.00;0.50;;;15.40;99.90;;;;;;5018240;28;20038;-77
2022/08/20 06:27:13;;;;;;;1.00;0.40;;;15.50;99.90;;;;;;5017658;28;20038;-75
2022/08/20 06:29:39;;;;;;;1.33;0.82;;;16.30;99.90;;;;;;5017502;28;20043;-74
2022/08/20 06:32:04;;;;;;;0.38;0.38;;;16.80;99.90;;;;;;5015703;28;20039;-75
2022/08/20 06:34:30;;;;;;;0.20;0.20;;;17.50;99.90;;;;;;5015063;28;20055;-75
2022/08/20 06:36:57;;;;;;;0.32;0.22;;;18.20;99.90;;;;;;5015568;28;20042;-74
2022/08/20 06:39:24;;;;;;;0.32;0.30;;;18.70;99.90;;;;;;5016190;28;20081;-75
2022/08/20 06:41:50;;;;;;;0.43;0.30;;;19.50;99.90;;;;;;5016412;28;20038;-75
2022/08/20 06:44:17;;;;;;;0.43;0.43;;;19.90;99.90;;;;;;5014439;28;20081;-74
2022/08/20 06:46:43;;;;;;;0.13;0.10;;;20.20;99.90;;;;;;5013047;28;20047;-75
2022/08/20 06:49:08;;;;;;;0.20;0.20;;;20.30;99.90;;;;;;5013567;28;20053;-74
2022/08/20 06:51:36;;;;;;;0.30;0.30;;;20.50;99.90;;;;;;5013256;28;20054;-74
2022/08/20 06:54:03;;;;;;;0.10;0.10;;;21.00;99.90;;;;;;5013486;28;20102;-74
2022/08/20 06:56:30;;;;;;;8.25;1.27;;;21.00;99.90;;;;;;5013693;28;20073;-74
2022/08/20 06:58:55;;;;;;;0.10;0.10;;;21.40;99.90;;;;;;5013156;28;20069;-74
2022/08/20 07:01:21;;;;;;;0.00;0.00;;;21.30;99.90;;;;;;5021752;28;20106;-74
2022/08/20 07:03:48;;;;;;;0.08;0.08;;;21.30;99.90;;;;;;5032475;28;20472;-74
2022/08/20 07:06:15;;;;;;;0.00;0.00;;;21.40;99.90;;;;;;5031609;28;20088;-74
2022/08/20 07:08:42;;;;;;;0.10;0.10;;;21.30;99.90;;;;;;5030977;28;20097;-74
2022/08/20 07:11:08;;;;;;;0.15;0.15;;;21.80;99.90;;;;;;5031779;28;20034;-74
2022/08/20 07:13:37;;;;;;;0.22;0.22;;;22.30;99.90;;;;;;5030853;28;20053;-74
2022/08/20 07:16:04;;;;;;;0.38;0.13;;;22.60;99.90;;;;;;5027136;28;20069;-75
2022/08/20 07:18:29;;;;;;;1.20;0.75;;;22.70;99.90;;;;;;5028703;28;20064;-74
2022/08/20 07:20:56;;;;;;;0.10;0.10;;;23.10;99.90;;;;;;5024434;28;20042;-74
2022/08/20 07:23:22;;;;;;;1.25;0.85;;;23.30;99.90;;;;;;5024352;28;20092;-75
2022/08/20 07:25:48;;;;;;;0.20;0.20;;;23.60;99.90;;;;;;5021692;28;20176;-75
2022/08/20 07:28:17;;;;;;;0.35;0.30;;;23.90;99.90;;;;;;5022442;28;20065;-75
2022/08/20 07:33:29;;;;;;;0.25;0.10;;;23.70;99.90;;;;;;5013263;28;20459;-76
2022/08/20 07:36:00;;;;;;;0.20;0.20;;;24.10;99.90;;;;;;5012222;28;20389;-76
2022/08/20 07:38:28;;;;;;;0.25;0.22;;;24.30;99.90;;;;;;5001507;28;20428;-77
2022/08/20 07:40:58;;;;;;;1.17;0.03;;;24.90;99.90;;;;;;5000077;28;20050;-76
2022/08/20 07:43:24;;;;;;;1.30;0.52;;;25.20;99.90;;;;;;5002483;28;20054;-77
2022/08/20 07:45:55;;;;;;;0.57;0.43;;;25.20;99.90;;;;;;5001078;28;20512;-77
2022/08/20 07:48:24;;;;;;;0.25;0.20;;;24.10;99.90;;;;;;4997825;28;20045;-77
2022/08/20 07:50:51;;;;;;;0.00;0.00;;;22.80;99.90;;;;;;5011203;28;20057;-76
2022/08/20 07:53:17;;;;;;;0.13;0.10;;;22.90;99.90;;;;;;5006151;28;20054;-76
2022/08/20 07:55:43;;;;;;;0.40;0.22;;;23.50;99.90;;;;;;5004945;28;20042;-76
2022/08/20 07:58:12;;;;;;;0.95;0.30;;;24.50;99.90;;;;;;5003301;28;20056;-76
2022/08/20 08:00:37;;;;;;;0.05;0.05;;;25.30;99.90;;;;;;5000607;28;20111;-77
2022/08/20 08:03:04;;;;;;;0.20;0.17;;;25.60;99.90;;;;;;5000281;28;20054;-77
2022/08/20 08:05:33;;;;;;;2.92;0.68;;;25.30;95.90;;;;;;5001076;28;20038;-77
2022/08/20 08:07:59;;;;;;;0.10;0.10;;;25.50;90.90;;;;;;4997980;28;20438;-76
2022/08/20 08:10:25;;;;;;;0.80;0.35;;;25.50;99.90;;;;;;4991651;28;20456;-77
2022/08/20 08:12:54;;;;;;;0.10;0.10;;;24.80;99.80;;;;;;4992032;28;20138;-77
2022/08/20 08:15:27;;;;;;;0.10;0.10;;;25.30;99.90;;;;;;4990779;28;20544;-76
2022/08/20 08:17:58;;;;;;;1.48;0.57;;;25.90;99.90;;;;;;4991651;28;20054;-77
2022/08/20 08:20:24;;;;;;;1.52;0.38;;;25.90;84.90;;;;;;4991597;28;20162;-76
2022/08/20 08:22:50;;;;;;;0.40;0.32;;;26.40;99.90;;;;;;4991369;28;20141;-77
2022/08/20 08:25:16;;;;;;;5.18;1.08;;;26.60;99.90;;;;;;4991670;28;20101;-76
2022/08/20 08:27:42;;;;;;;1.35;0.55;;;27.30;97.30;;;;;;4991608;28;20046;-76
2022/08/20 08:30:09;;;;;;;0.00;0.00;;;27.00;71.70;;;;;;4992870;28;20125;-77
2022/08/20 08:33:26;;;;;;;0.75;0.25;;;27.00;52.90;;;;;;4991472;28;20048;-76
2022/08/20 08:35:25;;;;;;;0.00;0.00;;;26.70;38.70;;;;;;4991372;28;20046;-77
2022/08/20 08:38:01;;;;;;;0.22;0.20;;;26.70;51.60;;;;;;5107462;27;20395;-76
2022/08/20 08:40:29;;;;;;;0.32;0.25;;;26.70;70.90;;;;;;5107433;28;20048;-76
2022/08/20 08:42:57;;;;;;;0.52;0.47;;;26.60;44.50;;;;;;5107585;28;20044;-76
2022/08/20 08:45:33;;;;;;;0.50;0.43;;;26.40;83.00;;;;;;5107569;28;20441;-76
2022/08/20 08:47:59;;;;;;;1.65;0.68;;;26.20;68.20;;;;;;5107458;28;20048;-75
2022/08/20 08:50:28;;;;;;;0.00;0.00;;;26.40;57.80;;;;;;5108784;28;20043;-74
2022/08/20 08:52:59;;;;;;;3.13;0.70;;;25.50;55.30;;;;;;5108572;28;20458;-73
2022/08/20 08:55:26;;;;;;;0.00;0.00;;;25.50;52.60;;;;;;5107748;28;20052;-74
2022/08/20 08:57:55;;;;;;;0.20;0.20;;;25.30;74.80;;;;;;5108626;28;20112;-74
2022/08/20 09:00:22;;;;;;;0.28;0.10;;;26.20;68.50;;;;;;5108158;28;20040;-73
2022/08/20 09:02:56;;;;;;;1.75;0.17;;;26.50;37.60;;;;;;5108197;28;20043;-74
2022/08/20 09:05:25;;;;;;;0.00;0.00;;;26.50;55.20;;;;;;5108965;28;20398;-74
2022/08/20 09:07:52;;;;;;;0.00;0.00;;;27.30;47.90;;;;;;5109490;28;20044;-74
2022/08/20 09:10:18;;;;;;;0.95;0.47;;;27.40;28.30;;;;;;5109871;28;20075;-73
2022/08/20 09:12:45;;;;;;;0.00;0.00;;;27.70;39.80;;;;;;5107584;28;20074;-74
2022/08/20 09:15:10;;;;;;;0.05;0.00;;;26.70;17.00;;;;;;5110986;28;20044;-74
2022/08/20 09:17:36;;;;;;;0.10;0.10;;;26.70;34.20;;;;;;5111032;28;20040;-74
2022/08/20 09:20:03;;;;;;;0.10;0.10;;;27.10;40.20;;;;;;5111606;28;20488;-72
2022/08/20 09:22:29;;;;;;;0.85;0.43;;;26.40;57.70;;;;;;5110034;28;20101;-73
2022/08/20 09:24:55;;;;;;;7.95;1.05;;;26.90;64.70;;;;;;5111758;28;20070;-73
2022/08/20 09:27:21;;;;;;;0.00;0.00;;;27.20;29.90;;;;;;5111084;28;20115;-73
2022/08/20 09:29:47;;;;;;;0.75;0.30;;;27.40;27.80;;;;;;5111429;28;20435;-73
2022/08/20 09:32:16;;;;;;;2.45;1.00;;;27.60;29.80;;;;;;5111498;28;20042;-73
2022/08/20 09:34:50;;;;;;;0.00;0.00;;;27.70;26.80;;;;;;5112759;28;20494;-73
2022/08/20 09:37:16;;;;;;;1.17;1.00;;;27.00;32.60;;;;;;5112452;28;20127;-73
2022/08/20 09:39:42;;;;;;;0.10;0.10;;;26.60;36.60;;;;;;5110283;28;20052;-73
2022/08/20 09:42:08;;;;;;;0.60;0.52;;;26.80;39.50;;;;;;5110618;28;20046;-73
2022/08/20 09:44:34;;;;;;;0.28;0.10;;;26.60;37.40;;;;;;5111502;28;20119;-73
2022/08/20 09:47:00;;;;;;;2.15;0.38;;;26.60;30.00;;;;;;5112457;28;20108;-73
2022/08/20 09:49:25;;;;;;;0.80;0.55;;;26.50;22.90;;;;;;5098714;28;20475;-73
2022/08/20 09:51:51;;;;;;;1.35;0.25;;;25.90;23.60;;;;;;5097511;28;20044;-73
2022/08/20 09:54:18;;;;;;;0.98;0.45;;;25.90;12.20;;;;;;5097700;28;20039;-73
2022/08/20 09:56:44;;;;;;;0.00;0.00;;;25.60;18.40;;;;;;5098127;28;20040;-73
2022/08/20 09:59:09;;;;;;;0.22;0.17;;;25.30;21.00;;;;;;5097516;28;20105;-73
2022/08/20 10:01:35;;;;;;;0.00;0.00;;;25.40;31.50;;;;;;5097105;28;20044;-73
2022/08/20 10:04:01;;;;;;;0.00;0.00;;;25.60;37.10;;;;;;5097843;28;20051;-73
2022/08/20 10:06:26;;;;;;;5.20;0.55;;;26.00;41.50;;;;;;5098424;28;20046;-73
2022/08/20 10:08:52;;;;;;;0.00;0.00;;;26.10;18.70;;;;;;5098436;28;20606;-73
2022/08/20 10:11:17;;;;;;;2.22;1.17;;;25.60;25.00;;;;;;5097364;28;20382;-73
2022/08/20 10:13:43;;;;;;;0.43;0.30;;;25.40;38.10;;;;;;5096881;28;20393;-73
2022/08/20 10:16:09;;;;;;;2.10;0.43;;;25.00;57.60;;;;;;5096037;28;20056;-73
2022/08/20 10:18:35;;;;;;;0.00;0.00;;;24.90;59.10;;;;;;5096610;28;20442;-73
2022/08/20 10:21:01;;;;;;;0.00;0.00;;;24.40;51.50;;;;;;5096783;28;20051;-73
2022/08/20 10:23:27;;;;;;;1.27;0.25;;;23.90;53.20;;;;;;5096051;28;20402;-72
2022/08/20 10:25:52;;;;;;;0.45;0.40;;;23.60;50.80;;;;;;5096197;28;20048;-73
2022/08/20 10:28:18;;;;;;;0.03;0.03;;;23.40;42.20;;;;;;5096185;28;20047;-73
2022/08/20 10:30:44;;;;;;;0.00;0.00;;;23.70;50.50;;;;;;5095845;28;20471;-72
2022/08/20 10:33:10;;;;;;;0.08;0.03;;;24.10;41.60;;;;;;5095976;28;20052;-73
2022/08/20 10:35:35;;;;;;;0.05;0.03;;;24.60;49.10;;;;;;5095576;28;20047;-73
2022/08/20 10:38:01;;;;;;;0.17;0.15;;;25.00;36.60;;;;;;5095749;28;20103;-73
2022/08/20 10:40:27;;;;;;;0.00;0.00;;;25.30;35.20;;;;;;5096365;28;20055;-73
2022/08/20 10:42:53;;;;;;;0.05;0.05;;;25.60;17.20;;;;;;5096401;28;20118;-73
2022/08/20 10:45:18;;;;;;;1.30;0.55;;;25.00;26.00;;;;;;5096608;28;20061;-73
2022/08/20 10:47:44;;;;;;;0.10;0.10;;;25.30;29.60;;;;;;5097818;28;20048;-74
2022/08/20 10:50:14;;;;;;;0.10;0.10;;;25.40;26.80;;;;;;5095675;28;20125;-73
2022/08/20 10:52:40;;;;;;;0.10;0.10;;;25.80;37.40;;;;;;5095240;28;20125;-73
2022/08/20 10:55:06;;;;;;;0.28;0.20;;;25.30;13.90;;;;;;5095311;28;20076;-73
2022/08/20 10:57:32;;;;;;;1.38;0.80;;;25.20;32.10;;;;;;5094792;28;20048;-73
2022/08/20 10:59:59;;;;;;;0.00;0.00;;;25.60;23.80;;;;;;5094145;28;20036;-73
2022/08/20 11:02:26;;;;;;;2.05;0.40;;;26.20;24.00;;;;;;5095785;28;20044;-73
2022/08/20 11:04:52;;;;;;;2.42;0.73;;;26.80;19.60;;;;;;5095359;28;20044;-73
2022/08/20 11:07:23;;;;;;;0.32;0.30;;;27.30;16.80;;;;;;5095377;28;20048;-73
2022/08/20 11:09:49;;;;;;;1.00;0.35;;;27.60;7.20;;;;;;5094808;28;20080;-73
2022/08/20 11:12:17;;;;;;;2.17;0.82;;;27.70;7.70;;;;;;5095548;28;20466;-73
2022/08/20 11:14:44;;;;;;;1.23;0.30;;;27.30;1.00;;;;;;5095662;28;20071;-73
2022/08/20 11:17:10;;;;;;;0.85;0.40;;;26.70;3.50;;;;;;5095092;28;20052;-72
2022/08/20 11:19:41;;;;;;;0.10;0.10;;;25.70;4.70;;;;;;5094847;28;20096;-73
2022/08/20 11:22:07;;;;;;;2.05;1.00;;;25.00;8.00;;;;;;5094571;28;20520;-72
2022/08/20 11:24:33;;;;;;;0.90;0.30;;;25.20;13.90;;;;;;5094801;28;20040;-73
2022/08/20 11:26:58;;;;;;;0.95;0.50;;;25.70;5.70;;;;;;5095022;28;20086;-73
2022/08/20 11:29:24;;;;;;;0.52;0.40;;;26.40;3.90;;;;;;5094176;28;20048;-73
2022/08/20 11:31:50;;;;;;;0.30;0.20;;;27.30;2.10;;;;;;5094516;28;20055;-73
2022/08/20 11:34:16;;;;;;;0.10;0.08;;;27.50;1.00;;;;;;5094002;28;20076;-73
2022/08/20 11:36:43;;;;;;;0.10;0.10;;;27.20;3.80;;;;;;5094319;28;20098;-73
2022/08/20 11:39:08;;;;;;;5.05;0.90;;;26.80;1.00;;;;;;5094943;28;20059;-73
2022/08/20 11:41:34;;;;;;;0.00;0.00;;;26.70;1.00;;;;;;5096133;28;20044;-73
2022/08/20 11:43:59;;;;;;;2.83;0.55;;;25.70;1.50;;;;;;5094018;28;20036;-72
2022/08/20 11:46:25;;;;;;;3.10;0.65;;;25.40;8.40;;;;;;5093869;28;20084;-72
2022/08/20 11:48:50;;;;;;;2.17;1.00;;;26.00;13.60;;;;;;5093531;28;20044;-73
2022/08/20 11:51:16;;;;;;;0.00;0.00;;;27.50;7.60;;;;;;5095116;28;20048;-73
2022/08/20 11:53:41;;;;;;;0.00;0.00;;;28.80;1.00;;;;;;5094315;28;20046;-73
2022/08/20 11:56:07;;;;;;;0.10;0.05;;;29.50;1.00;;;;;;5093779;28;20122;-73
2022/08/20 11:58:33;;;;;;;1.02;0.30;;;30.10;1.00;;;;;;5093896;28;20079;-73
2022/08/20 12:00:58;;;;;;;0.38;0.30;;;30.90;1.00;;;;;;5094529;28;20036;-72
2022/08/20 12:03:24;;;;;;;0.90;0.63;;;30.80;1.00;;;;;;5093548;28;20040;-73
2022/08/20 12:05:49;;;;;;;0.35;0.25;;;31.10;1.00;;;;;;5094549;28;20086;-73
2022/08/20 12:08:16;;;;;;;0.25;0.22;;;31.30;1.00;;;;;;5094547;28;20085;-73
2022/08/20 12:10:41;;;;;;;0.65;0.55;;;30.10;1.00;;;;;;5094369;28;20048;-73
2022/08/20 12:13:07;;;;;;;0.00;0.00;;;28.90;1.00;;;;;;5093725;28;20051;-73
2022/08/20 12:15:34;;;;;;;0.17;0.17;;;28.10;1.00;;;;;;5093429;28;20048;-73
2022/08/20 12:18:00;;;;;;;0.08;0.08;;;27.90;1.00;;;;;;5093237;28;20132;-73
2022/08/20 12:20:26;;;;;;;0.13;0.13;;;27.90;1.00;;;;;;5093295;28;20106;-73
2022/08/20 12:22:52;;;;;;;0.00;0.00;;;27.70;1.00;;;;;;5093995;28;20413;-73
2022/08/20 12:25:19;;;;;;;0.00;0.00;;;27.50;1.00;;;;;;5093928;28;20512;-73
2022/08/20 12:27:45;;;;;;;0.88;0.20;;;27.60;1.00;;;;;;5093564;28;20150;-73
2022/08/20 12:30:14;;;;;;;0.00;0.00;;;27.90;1.00;;;;;;5094116;28;20052;-72
2022/08/20 12:32:41;;;;;;;0.68;0.45;;;28.30;1.00;;;;;;5093594;28;20563;-73
2022/08/20 12:35:08;;;;;;;0.00;0.00;;;29.30;1.00;;;;;;5093504;28;20040;-73
2022/08/20 12:37:34;;;;;;;0.00;0.00;;;30.30;1.00;;;;;;5093051;28;20528;-74
2022/08/20 12:40:03;;;;;;;0.25;0.25;;;30.80;1.00;;;;;;5093834;28;20055;-74
2022/08/20 12:42:31;;;;;;;0.00;0.00;;;30.80;1.00;;;;;;5094477;28;20079;-73
2022/08/20 12:44:58;;;;;;;0.00;0.00;;;31.50;1.00;;;;;;5094587;28;20044;-73
2022/08/20 12:47:32;;;;;;;0.00;0.00;;;31.80;1.00;;;;;;5092998;28;20044;-73
2022/08/20 12:50:09;;;;;;;8.15;1.02;;;31.70;1.00;;;;;;5093234;28;20097;-73
2022/08/20 12:52:35;;;;;;;1.40;0.70;;;31.00;1.00;;;;;;5093062;28;20503;-73
2022/08/20 12:55:02;;;;;;;0.10;0.10;;;31.90;1.00;;;;;;5093597;28;20039;-74
2022/08/20 12:57:34;;;;;;;0.00;0.00;;;31.90;1.00;;;;;;5094934;28;20103;-73